This is the latest recevied weather packets stored in our database for station/object 9W2CHF-3. If no packets are shown the sender has not sent any weather packets the latest 1 day(s).
| Time | Temp. | Humidity | Pressure | Rain* | Wind** | Luminosity | Snow |
|---|---|---|---|---|---|---|---|
| 1778284897 | 27.78° C | 100% | 1011 hPa | - | - | - | - |
| 1778280095 | 27.78° C | 100% | 1010 hPa | - | - | - | - |
| 1778278895 | 27.78° C | 100% | 1009.7 hPa | - | - | - | - |
| 1778264493 | 28.89° C | 100% | 1009.9 hPa | - | - | - | - |
| 1778259697 | 28.89° C | 100% | 1011.1 hPa | - | - | - | - |
| 1778258497 | 29.44° C | 100% | 1011.4 hPa | - | - | - | - |
| 1778257297 | 29.44° C | 100% | 1011.6 hPa | - | - | - | - |
| 1778256097 | 29.44° C | 100% | 1011.9 hPa | - | - | - | - |
| 1778248911 | 27.78° C | 100% | 1011.6 hPa | - | - | - | - |
| 1778247696 | 28.89° C | 100% | 1011.3 hPa | - | - | - | - |
| 1778246496 | 29.44° C | 100% | 1011.3 hPa | - | - | - | - |
| 1778245298 | 27.78° C | 100% | 1011.1 hPa | - | - | - | - |
| 1778244096 | 28.89° C | 100% | 1010.9 hPa | - | - | - | - |
| 1778242896 | 28.89° C | 100% | 1010.6 hPa | - | - | - | - |
| 1778236901 | 28.33° C | 100% | 1009.3 hPa | - | - | - | - |
| 1778234496 | 30.56° C | 94% | 1008.8 hPa | - | - | - | - |
| 1778232093 | 31.67° C | 92% | 1008.4 hPa | - | - | - | - |
| 1778230893 | 31.67° C | 89% | 1008.5 hPa | - | - | - | - |
| 1778228492 | 31.67° C | 86% | 1008.5 hPa | - | - | - | - |
| 1778226092 | 34.44° C | 69% | 1008.1 hPa | - | - | - | - |
| 1778222491 | 31.11° C | 97% | 1008.7 hPa | - | - | - | - |
| 1778221291 | 29.44° C | 100% | 1009.2 hPa | - | - | - | - |
| 1778218890 | 29.44° C | 100% | 1009.1 hPa | - | - | - | - |
| 1778215293 | 32.78° C | 81% | 1010.3 hPa | - | - | - | - |
| 1778214093 | 32.78° C | 80% | 1010.5 hPa | - | - | - | - |
* Rain since midnight (hover to see other rain measurements)
** Current wind speed in m/s (hover to see current wind gust speed)